createdAt,value
2018-06-20T00:00:20.602Z,98861.50
2018-06-20T00:02:49.771Z,98865.79
2018-06-20T00:05:18.919Z,98868.05
2018-06-20T00:07:48.072Z,98864.06
2018-06-20T00:10:17.007Z,98860.45
2018-06-20T00:12:46.167Z,98861.27
2018-06-20T00:15:15.316Z,98860.17
2018-06-20T00:17:44.479Z,98859.30
2018-06-20T00:20:13.634Z,98859.73
2018-06-20T00:22:42.786Z,98864.06
2018-06-20T00:25:11.951Z,98859.41
2018-06-20T00:27:41.123Z,98854.73
2018-06-20T00:30:10.278Z,98852.99
2018-06-20T00:32:39.438Z,98849.61
2018-06-20T00:35:08.592Z,98852.36
2018-06-20T00:37:37.763Z,98849.67
2018-06-20T00:40:06.912Z,98852.28
2018-06-20T00:42:36.095Z,98845.49
2018-06-20T00:45:05.265Z,98850.63
2018-06-20T00:47:34.416Z,98849.41
2018-06-20T00:50:03.587Z,98846.02
2018-06-20T00:52:32.755Z,98838.34
2018-06-20T00:55:01.911Z,98848.98
2018-06-20T00:57:31.055Z,98850.69
2018-06-20T01:00:00.221Z,98844.67
2018-06-20T01:02:29.379Z,98844.67
2018-06-20T01:04:58.546Z,98850.63
2018-06-20T01:07:27.698Z,98846.41
2018-06-20T01:09:56.856Z,98844.27
2018-06-20T01:12:26.002Z,98842.56
2018-06-20T01:14:55.161Z,98843.45
2018-06-20T01:17:24.316Z,98842.82
2018-06-20T01:19:53.475Z,98841.94
2018-06-20T01:22:22.633Z,98843.70
2018-06-20T01:24:51.884Z,98844.30
2018-06-20T01:27:21.029Z,98848.91
2018-06-20T01:29:50.188Z,98844.75
2018-06-20T01:32:19.351Z,98842.23
2018-06-20T01:34:48.283Z,98845.08
2018-06-20T01:37:17.439Z,98847.30
2018-06-20T01:39:46.371Z,98843.53
2018-06-20T01:42:15.528Z,98844.44
2018-06-20T01:44:44.680Z,98837.17
2018-06-20T01:47:13.843Z,98829.27
2018-06-20T01:49:42.991Z,98823.92
2018-06-20T01:52:12.151Z,98830.71
2018-06-20T01:54:41.314Z,98829.83
2018-06-20T01:57:10.226Z,98826.30
2018-06-20T01:59:39.391Z,98829.43
2018-06-20T02:02:08.550Z,98824.42
2018-06-20T02:04:37.697Z,98829.00
2018-06-20T02:07:07.101Z,98826.03
2018-06-20T02:09:36.243Z,98824.64
2018-06-20T02:12:05.408Z,98824.30
2018-06-20T02:14:34.560Z,98825.09
2018-06-20T02:17:03.718Z,98828.15
2018-06-20T02:19:32.872Z,98825.09
2018-06-20T02:22:02.046Z,98825.59
2018-06-20T02:24:31.196Z,98823.09
2018-06-20T02:27:00.361Z,98818.55
2018-06-20T02:29:29.512Z,98822.02
2018-06-20T02:31:58.683Z,98825.22
2018-06-20T02:34:27.835Z,98819.00
2018-06-20T02:36:56.995Z,98817.70
2018-06-20T02:39:26.314Z,98816.73
2018-06-20T02:41:55.476Z,98818.01
2018-06-20T02:44:24.640Z,98819.37
2018-06-20T02:46:54.343Z,98812.14
2018-06-20T02:49:23.491Z,98813.80
2018-06-20T02:51:52.663Z,98811.68
2018-06-20T02:54:21.815Z,98814.80
2018-06-20T02:56:50.992Z,98811.80
2018-06-20T02:59:20.148Z,98808.48
2018-06-20T03:01:49.104Z,98807.64
2018-06-20T03:04:18.255Z,98809.81
2018-06-20T03:06:47.547Z,98804.83
2018-06-20T03:09:20.711Z,98800.26
2018-06-20T03:11:50.039Z,98806.22
2018-06-20T03:14:19.515Z,98798.22
2018-06-20T03:16:48.445Z,98805.89
2018-06-20T03:19:17.598Z,98802.48
2018-06-20T03:21:46.772Z,98808.11
2018-06-20T03:24:15.931Z,98810.34
2018-06-20T03:26:45.083Z,98802.53
2018-06-20T03:29:14.258Z,98810.30
2018-06-20T03:31:43.408Z,98821.86
2018-06-20T03:34:12.580Z,98819.30
2018-06-20T03:36:41.736Z,98819.25
2018-06-20T03:39:11.295Z,98813.45
2018-06-20T03:41:40.587Z,98808.23
2018-06-20T03:44:09.756Z,98803.00
2018-06-20T03:46:38.920Z,98801.81
2018-06-20T03:49:08.076Z,98800.89
2018-06-20T03:51:37.239Z,98802.66
2018-06-20T03:54:06.396Z,98801.98
2018-06-20T03:56:35.568Z,98797.80
2018-06-20T03:59:04.888Z,98795.01
2018-06-20T04:01:34.051Z,98795.95
2018-06-20T04:04:03.210Z,98800.17
2018-06-20T04:06:32.356Z,98799.30
2018-06-20T04:09:01.523Z,98801.80
2018-06-20T04:11:30.688Z,98797.97
2018-06-20T04:13:59.844Z,98799.64
2018-06-20T04:16:28.994Z,98792.69
2018-06-20T04:18:58.150Z,98788.75
2018-06-20T04:21:27.309Z,98787.81
2018-06-20T04:23:56.488Z,98784.46
2018-06-20T04:26:25.639Z,98787.16
2018-06-20T04:28:54.562Z,98783.30
2018-06-20T04:31:23.725Z,98786.80
2018-06-20T04:33:52.659Z,98784.59
2018-06-20T04:36:21.828Z,98782.36
2018-06-20T04:38:50.992Z,98784.80
2018-06-20T04:41:20.156Z,98781.39
2018-06-20T04:43:49.309Z,98785.04
2018-06-20T04:46:18.484Z,98788.82
2018-06-20T04:48:47.782Z,98789.97
2018-06-20T04:51:16.931Z,98791.66
2018-06-20T04:53:46.096Z,98792.02
2018-06-20T04:56:15.246Z,98789.53
2018-06-20T04:58:44.416Z,98793.31
2018-06-20T05:01:13.578Z,98789.60
2018-06-20T05:03:42.531Z,98791.38
2018-06-20T05:06:11.683Z,98793.76
2018-06-20T05:08:40.840Z,98793.20
2018-06-20T05:11:09.991Z,98786.84
2018-06-20T05:13:39.138Z,98792.28
2018-06-20T05:16:08.080Z,98797.23
2018-06-20T05:18:37.244Z,98792.28
2018-06-20T05:21:06.186Z,98787.27
2018-06-20T05:23:35.341Z,98786.76
2018-06-20T05:26:04.266Z,98791.56
2018-06-20T05:28:33.439Z,98794.53
2018-06-20T05:31:02.599Z,98791.13
2018-06-20T05:33:31.766Z,98788.08
2018-06-20T05:36:00.926Z,98786.16
2018-06-20T05:38:30.102Z,98785.94
2018-06-20T05:40:59.042Z,98787.22
2018-06-20T05:43:28.209Z,98780.85
2018-06-20T05:45:57.143Z,98779.89
2018-06-20T05:48:26.295Z,98794.73
2018-06-20T05:50:55.219Z,98788.94
2018-06-20T05:53:24.383Z,98787.64
2018-06-20T05:56:04.582Z,98786.57
2018-06-20T05:58:40.435Z,98785.23
2018-06-20T06:01:10.824Z,98795.15
2018-06-20T06:03:41.257Z,98792.29
2018-06-20T06:06:15.808Z,98792.21
2018-06-20T06:08:46.145Z,98792.11
2018-06-20T06:11:15.786Z,98794.91
2018-06-20T06:13:45.111Z,98792.81
2018-06-20T06:16:14.781Z,98791.56
2018-06-20T06:18:44.670Z,98789.07
2018-06-20T06:21:16.303Z,98784.50
2018-06-20T06:23:46.037Z,98779.22
2018-06-20T06:26:16.370Z,98780.14
2018-06-20T06:28:46.269Z,98781.48
2018-06-20T06:31:17.195Z,98789.02
2018-06-20T06:33:48.841Z,98790.30
2018-06-20T06:36:19.776Z,98784.62
2018-06-20T06:38:49.453Z,98786.74
2018-06-20T06:41:18.653Z,98784.14
2018-06-20T06:43:47.829Z,98778.91
2018-06-20T06:46:17.298Z,98783.01
2018-06-20T06:48:46.986Z,98779.33
2018-06-20T06:51:16.640Z,98781.29
2018-06-20T06:53:46.389Z,98771.77
2018-06-20T06:56:16.320Z,98773.09
2018-06-20T06:58:46.203Z,98772.27
2018-06-20T07:01:15.646Z,98775.19
2018-06-20T07:03:45.289Z,98774.34
2018-06-20T07:06:15.082Z,98764.75
2018-06-20T07:08:44.819Z,98766.45
2018-06-20T07:11:14.453Z,98766.08
2018-06-20T07:13:44.153Z,98762.84
2018-06-20T07:16:13.756Z,98765.69
2018-06-20T07:18:43.332Z,98763.77
2018-06-20T07:21:12.970Z,98765.32
2018-06-20T07:23:42.511Z,98761.59
2018-06-20T07:26:12.797Z,98755.95
2018-06-20T07:28:42.408Z,98760.11
2018-06-20T07:31:12.005Z,98754.77
2018-06-20T07:33:41.701Z,98747.59
2018-06-20T07:36:11.493Z,98753.34
2018-06-20T07:38:40.682Z,98747.95
2018-06-20T07:41:10.178Z,98741.59
2018-06-20T07:43:39.513Z,98744.30
2018-06-20T07:46:09.099Z,98743.30
2018-06-20T07:48:38.739Z,98737.40
2018-06-20T07:51:08.298Z,98736.41
2018-06-20T07:53:37.942Z,98737.36
2018-06-20T07:56:07.528Z,98732.33
2018-06-20T07:58:42.183Z,98723.74
2018-06-20T08:01:22.483Z,98726.64
2018-06-20T08:03:57.295Z,98727.80
2018-06-20T08:06:32.124Z,98725.68
2018-06-20T08:10:08.665Z,98723.98
2018-06-20T08:12:43.510Z,98718.87
2018-06-20T08:15:18.381Z,98714.44
2018-06-20T08:17:53.088Z,98717.66
2018-06-20T08:20:24.764Z,98712.63
2018-06-20T08:22:55.053Z,98714.86
2018-06-20T08:25:24.768Z,98718.09
2018-06-20T08:27:54.416Z,98714.05
2018-06-20T08:30:23.949Z,98703.32
2018-06-20T08:32:53.688Z,98704.58
2018-06-20T08:35:22.985Z,98702.83
2018-06-20T08:37:52.666Z,98702.45
2018-06-20T08:40:22.171Z,98702.34
2018-06-20T08:42:51.669Z,98702.38
2018-06-20T08:45:21.111Z,98700.34
2018-06-20T08:47:50.601Z,98696.83
2018-06-20T08:50:19.968Z,98687.23
2018-06-20T08:52:49.481Z,98690.88
2018-06-20T08:55:19.134Z,98691.95
2018-06-20T08:57:48.558Z,98691.69
2018-06-20T09:00:23.270Z,98688.59
2018-06-20T09:02:52.819Z,98688.34
2018-06-20T09:05:27.554Z,98688.16
2018-06-20T09:08:02.195Z,98683.40
2018-06-20T09:10:37.058Z,98677.11
2018-06-20T09:13:11.896Z,98673.27
2018-06-20T09:15:46.761Z,98670.11
2018-06-20T09:18:21.365Z,98679.36
2018-06-20T09:20:50.829Z,98678.34
2018-06-20T09:23:20.449Z,98678.58
2018-06-20T09:25:49.658Z,98672.38
2018-06-20T09:28:18.916Z,98674.59
2018-06-20T09:30:48.390Z,98669.31
2018-06-20T09:33:17.838Z,98667.42
2018-06-20T09:35:47.240Z,98664.53
2018-06-20T09:38:16.775Z,98664.48
2018-06-20T09:40:46.375Z,98675.72
2018-06-20T09:43:15.795Z,98671.64
2018-06-20T09:45:45.233Z,98670.02
2018-06-20T09:48:14.699Z,98669.37
2018-06-20T09:50:49.571Z,98662.34
2018-06-20T09:53:19.099Z,98669.09
2018-06-20T09:55:48.648Z,98669.05
2018-06-20T09:58:19.132Z,98663.05
2018-06-20T10:00:53.901Z,98663.77
2018-06-20T10:03:28.732Z,98658.16
2018-06-20T10:06:03.565Z,98655.95
2018-06-20T10:08:38.385Z,98657.94
2018-06-20T10:11:14.455Z,98658.70
2018-06-20T10:13:47.425Z,98658.83
2018-06-20T10:16:17.238Z,98657.34
2018-06-20T10:18:46.442Z,98648.67
2018-06-20T10:21:16.019Z,98647.55
2018-06-20T10:23:45.529Z,98639.48
2018-06-20T10:26:14.777Z,98640.91
2018-06-20T10:28:44.266Z,98629.55
2018-06-20T10:31:13.824Z,98626.34
2018-06-20T10:33:43.389Z,98626.28
2018-06-20T10:36:13.115Z,98631.69
2018-06-20T10:38:42.657Z,98633.05
2018-06-20T10:41:12.160Z,98623.80
2018-06-20T10:43:41.567Z,98618.61
2018-06-20T10:47:16.201Z,98617.59
2018-06-20T10:49:45.649Z,98623.31
2018-06-20T10:52:15.201Z,98608.56
2018-06-20T10:54:44.843Z,98615.83
2018-06-20T10:57:19.625Z,98614.97
2018-06-20T11:00:02.093Z,98609.02
2018-06-20T11:02:37.070Z,98607.95
2018-06-20T11:05:12.032Z,98607.06
2018-06-20T11:07:47.692Z,98595.48
2018-06-20T11:10:23.511Z,98586.98
2018-06-20T11:13:11.749Z,98587.62
2018-06-20T11:15:41.507Z,98578.81
2018-06-20T11:18:11.079Z,98579.80
2018-06-20T11:20:45.922Z,98586.58
2018-06-20T11:23:15.659Z,98572.44
2018-06-20T11:25:45.161Z,98562.64
2018-06-20T11:28:15.820Z,98573.40
2018-06-20T11:30:46.524Z,98573.59
2018-06-20T11:33:16.583Z,98558.04
2018-06-20T11:35:46.261Z,98560.83
2018-06-20T11:38:15.911Z,98556.25
2018-06-20T11:40:45.480Z,98553.47
2018-06-20T11:43:15.001Z,98539.34
2018-06-20T11:45:49.795Z,98537.84
2018-06-20T11:48:19.185Z,98533.48
2018-06-20T11:50:48.689Z,98526.42
2018-06-20T11:53:18.238Z,98533.62
2018-06-20T11:55:48.356Z,98534.74
2018-06-20T11:58:23.359Z,98535.00
2018-06-20T12:00:58.187Z,98524.02
2018-06-20T12:03:33.107Z,98522.00
2018-06-20T12:06:07.899Z,98511.36
2018-06-20T12:08:42.846Z,98514.20
2018-06-20T12:12:15.058Z,98510.24
2018-06-20T12:14:49.758Z,98510.52
2018-06-20T12:17:24.318Z,98506.64
2018-06-20T12:19:59.165Z,98494.58
2018-06-20T12:22:33.964Z,98496.05
2018-06-20T12:25:08.620Z,98505.53
2018-06-20T12:27:43.456Z,98499.69
2018-06-20T12:30:18.163Z,98492.19
2018-06-20T12:32:52.837Z,98487.75
2018-06-20T12:35:27.560Z,98488.05
2018-06-20T12:38:02.424Z,98480.17
2018-06-20T12:40:37.156Z,98480.38
2018-06-20T12:43:11.905Z,98482.02
2018-06-20T12:45:41.643Z,98481.56
2018-06-20T12:48:10.987Z,98482.13
2018-06-20T12:50:40.341Z,98474.03
2018-06-20T12:53:09.838Z,98476.05
2018-06-20T12:55:39.134Z,98462.37
2018-06-20T12:58:08.771Z,98471.84
2018-06-20T13:00:38.346Z,98471.19
2018-06-20T13:03:07.975Z,98463.63
2018-06-20T13:05:37.661Z,98459.06
2018-06-20T13:08:07.309Z,98456.02
2018-06-20T13:10:36.904Z,98461.02
2018-06-20T13:13:06.271Z,98452.78
2018-06-20T13:15:35.714Z,98452.72
2018-06-20T13:18:05.015Z,98448.61
2018-06-20T13:20:34.387Z,98446.44
2018-06-20T13:23:03.840Z,98444.07
2018-06-20T13:25:34.393Z,98436.24
2018-06-20T13:28:03.807Z,98440.67
2018-06-20T13:30:33.203Z,98438.71
2018-06-20T13:33:07.926Z,98439.47
2018-06-20T13:35:42.535Z,98430.61
2018-06-20T13:38:17.105Z,98431.09
2018-06-20T13:40:51.834Z,98423.59
2018-06-20T13:43:26.227Z,98420.28
2018-06-20T13:46:00.790Z,98416.77
2018-06-20T13:48:32.717Z,98422.48
2018-06-20T13:51:02.137Z,98416.30
2018-06-20T13:53:31.581Z,98417.16
2018-06-20T13:56:01.336Z,98414.78
2018-06-20T13:58:30.795Z,98409.98
2018-06-20T14:01:00.204Z,98408.28
2018-06-20T14:03:29.328Z,98404.03
2018-06-20T14:05:59.982Z,98397.69
2018-06-20T14:08:29.556Z,98393.20
2018-06-20T14:10:59.243Z,98388.19
2018-06-20T14:13:28.498Z,98390.45
2018-06-20T14:15:57.904Z,98394.34
2018-06-20T14:18:27.338Z,98382.58
2018-06-20T14:21:01.885Z,98386.27
2018-06-20T14:23:31.212Z,98393.76
2018-06-20T14:26:00.670Z,98382.94
2018-06-20T14:28:30.197Z,98379.17
2018-06-20T14:31:04.883Z,98378.48
2018-06-20T14:34:40.056Z,98389.14
2018-06-20T14:37:14.688Z,98382.51
2018-06-20T14:39:49.127Z,98370.53
2018-06-20T14:42:23.623Z,98378.01
2018-06-20T14:44:56.827Z,98368.32
2018-06-20T14:47:26.096Z,98361.86
2018-06-20T14:49:55.345Z,98368.35
2018-06-20T14:52:24.681Z,98367.18
2018-06-20T14:54:53.965Z,98361.52
2018-06-20T14:57:23.272Z,98356.52
2018-06-20T14:59:52.545Z,98359.31
2018-06-20T15:02:21.894Z,98361.27
2018-06-20T15:04:51.198Z,98352.99
2018-06-20T15:07:20.579Z,98345.65
2018-06-20T15:09:49.880Z,98351.23
2018-06-20T15:12:19.149Z,98347.24
2018-06-20T15:14:48.400Z,98345.89
2018-06-20T15:17:29.245Z,98340.86
2018-06-20T15:19:58.627Z,98342.10
2018-06-20T15:22:31.953Z,98345.02
2018-06-20T15:25:01.162Z,98337.27
2018-06-20T15:27:35.808Z,98336.27
2018-06-20T15:30:10.425Z,98330.75
2018-06-20T15:32:44.966Z,98327.65
2018-06-20T15:35:19.394Z,98321.06
2018-06-20T15:37:54.092Z,98316.16
2018-06-20T15:40:23.092Z,98317.42
2018-06-20T15:42:52.304Z,98317.02
2018-06-20T15:45:21.629Z,98320.86
2018-06-20T15:47:50.919Z,98311.45
2018-06-20T15:50:20.136Z,98305.73
2018-06-20T15:52:49.378Z,98305.39
2018-06-20T15:55:18.379Z,98303.10
2018-06-20T15:57:47.683Z,98307.13
2018-06-20T16:00:16.709Z,98301.29
2018-06-20T16:02:45.978Z,98294.86
2018-06-20T16:05:15.321Z,98292.20
2018-06-20T16:07:44.697Z,98292.47
2018-06-20T16:10:18.142Z,98290.50
2018-06-20T16:12:47.571Z,98291.72
2018-06-20T16:15:17.621Z,98291.09
2018-06-20T16:17:46.831Z,98287.88
2018-06-20T16:20:21.317Z,98291.58
2018-06-20T16:22:55.693Z,98284.11
2018-06-20T16:25:29.991Z,98281.57
2018-06-20T16:28:04.532Z,98281.30
2018-06-20T16:30:36.459Z,98284.91
2018-06-20T16:33:06.005Z,98280.89
2018-06-20T16:35:35.652Z,98280.66
2018-06-20T16:38:04.965Z,98287.28
2018-06-20T16:40:33.946Z,98285.92
2018-06-20T16:43:03.145Z,98280.75
2018-06-20T16:45:32.091Z,98283.53
2018-06-20T16:48:01.282Z,98289.66
2018-06-20T16:50:30.487Z,98284.27
2018-06-20T16:52:59.749Z,98276.33
2018-06-20T16:55:29.876Z,98273.55
2018-06-20T16:57:59.063Z,98269.95
2018-06-20T17:00:28.298Z,98270.03
2018-06-20T17:02:57.461Z,98268.63
2018-06-20T17:05:26.721Z,98272.05
2018-06-20T17:07:55.715Z,98268.38
2018-06-20T17:10:24.962Z,98263.80
2018-06-20T17:12:59.355Z,98264.38
2018-06-20T17:15:33.712Z,98261.50
2018-06-20T17:18:08.219Z,98259.65
2018-06-20T17:20:42.911Z,98260.48
2018-06-20T17:23:17.373Z,98255.77
2018-06-20T17:25:46.799Z,98262.23
2018-06-20T17:28:16.051Z,98256.94
2018-06-20T17:30:45.380Z,98248.94
2018-06-20T17:33:14.650Z,98249.50
2018-06-20T17:35:44.026Z,98251.59
2018-06-20T17:38:13.324Z,98248.45
2018-06-20T17:40:42.401Z,98245.77
2018-06-20T17:43:12.099Z,98243.45
2018-06-20T17:45:41.727Z,98239.50
2018-06-20T17:48:10.738Z,98237.23
2018-06-20T17:50:39.993Z,98241.33
2018-06-20T17:53:09.132Z,98242.99
2018-06-20T17:55:38.075Z,98236.80
2018-06-20T17:58:07.256Z,98233.47
2018-06-20T18:00:41.780Z,98237.00
2018-06-20T18:03:13.361Z,98237.05
2018-06-20T18:05:47.805Z,98237.41
2018-06-20T18:08:22.279Z,98238.75
2018-06-20T18:10:56.960Z,98234.88
2018-06-20T18:13:34.321Z,98244.73
2018-06-20T18:16:09.115Z,98239.46
2018-06-20T18:18:38.701Z,98239.72
2018-06-20T18:21:08.401Z,98237.45
2018-06-20T18:23:43.688Z,98233.14
2018-06-20T18:26:44.225Z,98236.89
2018-06-20T18:29:25.494Z,98228.13
2018-06-20T18:51:29.567Z,98236.70
2018-06-20T18:53:59.345Z,98242.11
2018-06-20T18:56:29.257Z,98241.58
2018-06-20T18:59:04.084Z,98242.72
2018-06-20T19:01:39.325Z,98241.11
2018-06-20T19:10:04.812Z,98244.64
2018-06-20T19:12:34.178Z,98241.59
2018-06-20T19:15:03.758Z,98246.82
2018-06-20T19:17:33.155Z,98246.82
2018-06-20T19:20:02.515Z,98244.23
2018-06-20T19:22:31.807Z,98241.73
2018-06-20T19:25:01.140Z,98244.98
2018-06-20T19:27:30.640Z,98243.88
2018-06-20T19:30:00.071Z,98242.78
2018-06-20T19:32:29.578Z,98244.47
2018-06-20T19:34:58.994Z,98246.23
2018-06-20T19:37:28.521Z,98252.64
2018-06-20T19:39:58.033Z,98254.31
2018-06-20T19:42:27.507Z,98255.60
2018-06-20T19:44:57.124Z,98255.05
2018-06-20T19:47:26.533Z,98258.30
2018-06-20T19:49:56.018Z,98261.80
2018-06-20T19:52:25.488Z,98263.94
2018-06-20T19:54:54.964Z,98260.03
2018-06-20T19:57:24.475Z,98258.25
2018-06-20T19:59:54.144Z,98261.11
2018-06-20T20:02:23.629Z,98266.23
2018-06-20T20:04:53.243Z,98264.44
2018-06-20T20:07:22.832Z,98263.69
2018-06-20T20:09:52.536Z,98260.42
2018-06-20T20:12:22.064Z,98267.33
2018-06-20T20:14:51.607Z,98266.25
2018-06-20T20:17:21.133Z,98263.39
2018-06-20T20:19:50.589Z,98265.55
2018-06-20T20:22:20.123Z,98268.59
2018-06-20T20:24:49.701Z,98265.02
2018-06-20T20:27:19.315Z,98267.12
2018-06-20T20:29:48.841Z,98270.87
2018-06-20T20:32:18.462Z,98266.05
2018-06-20T20:34:47.704Z,98266.68
2018-06-20T20:37:16.944Z,98268.09
2018-06-20T20:39:46.244Z,98264.20
2018-06-20T20:42:15.420Z,98264.56
2018-06-20T20:44:44.610Z,98259.39
2018-06-20T20:47:13.807Z,98256.67
2018-06-20T20:49:43.118Z,98254.59
2018-06-20T20:52:11.978Z,98255.21
2018-06-20T20:54:41.162Z,98261.84
2018-06-20T20:57:10.200Z,98260.52
2018-06-20T20:59:39.443Z,98262.81
2018-06-20T21:02:08.678Z,98263.92
2018-06-20T21:04:37.836Z,98258.91
2018-06-20T21:07:06.802Z,98257.74
2018-06-20T21:09:35.998Z,98258.39
2018-06-20T21:12:05.239Z,98262.07
2018-06-20T21:14:34.219Z,98255.97
2018-06-20T21:17:03.520Z,98253.98
2018-06-20T21:19:32.439Z,98249.28
2018-06-20T21:22:01.609Z,98255.81
2018-06-20T21:24:30.915Z,98256.48
2018-06-20T21:26:59.830Z,98257.73
2018-06-20T21:29:28.996Z,98256.95
2018-06-20T21:31:58.160Z,98257.66
2018-06-20T21:34:27.320Z,98256.62
2018-06-20T21:36:56.472Z,98255.13
2018-06-20T21:39:25.627Z,98249.02
2018-06-20T21:41:54.792Z,98248.98
2018-06-20T21:44:23.999Z,98246.90
2018-06-20T21:46:53.276Z,98243.28
2018-06-20T21:49:22.423Z,98231.46
2018-06-20T21:51:51.595Z,98230.72
2018-06-20T21:54:20.796Z,98230.55
2018-06-20T21:56:51.578Z,98240.59
2018-06-20T21:59:21.356Z,98231.94
2018-06-20T22:01:51.542Z,98233.86
2018-06-20T22:04:20.637Z,98236.19
2018-06-20T22:06:50.201Z,98229.89
2018-06-20T22:09:20.930Z,98234.92
2018-06-20T22:11:50.101Z,98228.83
2018-06-20T22:14:19.343Z,98229.31
2018-06-20T22:16:48.501Z,98224.86
2018-06-20T22:19:17.683Z,98228.35
2018-06-20T22:21:46.837Z,98225.58
2018-06-20T22:24:15.995Z,98224.70
2018-06-20T22:26:45.151Z,98228.05
2018-06-20T22:29:14.314Z,98230.78
2018-06-20T22:31:43.477Z,98224.05
2018-06-20T22:34:12.644Z,98226.48
2018-06-20T22:36:41.801Z,98226.77
2018-06-20T22:39:11.335Z,98217.89
2018-06-20T22:41:40.498Z,98218.38
2018-06-20T22:44:09.643Z,98215.89
2018-06-20T22:46:38.812Z,98209.27
2018-06-20T22:49:08.339Z,98206.04
2018-06-20T22:51:37.555Z,98210.41
2018-06-20T22:54:07.387Z,98202.77
2018-06-20T22:56:36.544Z,98202.63
2018-06-20T22:59:05.460Z,98201.53
2018-06-20T23:01:34.676Z,98192.89
2018-06-20T23:04:03.844Z,98196.63
2018-06-20T23:06:33.010Z,98197.41
2018-06-20T23:09:02.155Z,98193.36
2018-06-20T23:11:35.431Z,98198.82
2018-06-20T23:14:04.563Z,98191.97
2018-06-20T23:16:33.719Z,98188.20
2018-06-20T23:19:02.899Z,98184.34
2018-06-20T23:21:32.056Z,98185.77
2018-06-20T23:24:01.288Z,98185.81
2018-06-20T23:26:30.445Z,98190.53
2018-06-20T23:29:00.096Z,98187.28
2018-06-20T23:31:29.240Z,98182.77
2018-06-20T23:33:58.396Z,98183.14
2018-06-20T23:36:27.544Z,98179.34
2018-06-20T23:38:56.727Z,98179.52
2018-06-20T23:41:25.879Z,98177.39
2018-06-20T23:43:55.032Z,98176.94
2018-06-20T23:46:24.181Z,98168.57
2018-06-20T23:48:53.338Z,98168.82
2018-06-20T23:51:22.496Z,98166.88
2018-06-20T23:53:51.662Z,98167.41
2018-06-20T23:56:20.815Z,98165.00
2018-06-20T23:58:49.967Z,98159.33
